createdAt,value
2023-03-16T00:00:13.735Z,32.10
2023-03-16T00:02:44.269Z,31.60
2023-03-16T00:05:14.597Z,31.70
2023-03-16T00:07:43.524Z,31.50
2023-03-16T00:10:13.613Z,32.30
2023-03-16T00:12:43.450Z,31.80
2023-03-16T00:15:12.509Z,31.90
2023-03-16T00:17:40.552Z,32.30
2023-03-16T00:20:12.693Z,32.70
2023-03-16T00:22:41.756Z,32.40
2023-03-16T00:25:10.926Z,32.20
2023-03-16T00:27:39.142Z,32.20
2023-03-16T00:30:08.937Z,32.10
2023-03-16T00:32:39.824Z,32.60
2023-03-16T00:35:10.617Z,32.30
2023-03-16T00:37:39.555Z,32.50
2023-03-16T00:40:12.060Z,32.50
2023-03-16T00:42:40.154Z,32.60
2023-03-16T00:45:10.402Z,32.90
2023-03-16T00:47:38.354Z,33.00
2023-03-16T00:50:09.038Z,33.10
2023-03-16T00:52:38.077Z,33.10
2023-03-16T00:55:08.488Z,32.40
2023-03-16T00:57:36.529Z,32.20
2023-03-16T01:00:12.658Z,32.30
2023-03-16T01:02:40.615Z,33.40
2023-03-16T01:05:12.471Z,32.90
2023-03-16T01:07:40.937Z,33.50
2023-03-16T01:10:10.895Z,33.30
2023-03-16T01:12:39.136Z,33.40
2023-03-16T01:15:08.861Z,33.50
2023-03-16T01:17:36.881Z,33.80
2023-03-16T01:20:11.958Z,33.60
2023-03-16T01:22:42.172Z,34.00
2023-03-16T01:25:12.866Z,33.60
2023-03-16T01:27:40.858Z,33.90
2023-03-16T01:30:12.276Z,33.80
2023-03-16T01:32:40.468Z,34.00
2023-03-16T01:35:10.193Z,33.20
2023-03-16T01:37:38.455Z,33.80
2023-03-16T01:40:12.211Z,34.00
2023-03-16T01:42:47.249Z,33.20
2023-03-16T01:46:22.961Z,34.00
2023-03-16T01:49:07.971Z,34.20
2023-03-16T01:51:44.409Z,34.00
2023-03-16T01:54:23.139Z,34.20
2023-03-16T01:57:00.599Z,33.80
2023-03-16T01:59:34.284Z,34.50
2023-03-16T02:02:03.576Z,34.40
2023-03-16T02:04:44.130Z,34.40
2023-03-16T02:07:16.812Z,34.40
2023-03-16T02:09:47.647Z,34.40
2023-03-16T02:12:19.398Z,33.90
2023-03-16T02:14:48.687Z,34.70
2023-03-16T02:17:19.286Z,34.60
2023-03-16T02:20:00.770Z,34.60
2023-03-16T02:22:29.420Z,34.40
2023-03-16T02:24:57.418Z,34.70
2023-03-16T02:27:35.556Z,35.40
2023-03-16T02:30:11.546Z,35.20
2023-03-16T02:32:41.814Z,35.20
2023-03-16T02:35:14.561Z,35.00
2023-03-16T02:37:42.765Z,35.30
2023-03-16T02:40:25.006Z,35.40
2023-03-16T02:43:02.679Z,35.30
2023-03-16T02:45:36.637Z,35.20
2023-03-16T02:48:14.509Z,35.20
2023-03-16T02:50:47.952Z,35.60
2023-03-16T02:53:16.718Z,34.90
2023-03-16T02:55:45.774Z,35.00
2023-03-16T02:58:13.881Z,34.90
2023-03-16T03:00:45.233Z,35.70
2023-03-16T03:03:14.119Z,36.00
2023-03-16T03:05:42.316Z,36.00
2023-03-16T03:08:10.447Z,35.90
2023-03-16T03:10:38.433Z,36.00
2023-03-16T03:13:07.560Z,36.00
2023-03-16T03:15:36.271Z,36.10
2023-03-16T03:18:05.699Z,35.50
2023-03-16T03:20:33.904Z,35.60
2023-03-16T03:23:02.955Z,35.70
2023-03-16T03:25:34.605Z,35.60
2023-03-16T03:28:05.932Z,36.00
2023-03-16T03:30:34.248Z,36.00
2023-03-16T03:33:02.700Z,36.00
2023-03-16T03:35:32.620Z,36.30
2023-03-16T03:38:00.718Z,36.30
2023-03-16T03:40:28.983Z,35.60
2023-03-16T03:42:57.220Z,35.90
2023-03-16T03:45:25.350Z,36.00
2023-03-16T03:47:55.017Z,35.90
2023-03-16T03:50:23.424Z,35.90
2023-03-16T03:52:52.750Z,36.50
2023-03-16T03:55:20.715Z,36.00
2023-03-16T03:57:48.704Z,36.30
2023-03-16T04:00:20.733Z,36.60
2023-03-16T04:02:49.151Z,36.80
2023-03-16T04:05:17.353Z,36.60
2023-03-16T04:07:45.663Z,36.80
2023-03-16T04:10:15.171Z,36.50
2023-03-16T04:12:43.175Z,36.00
2023-03-16T04:15:12.960Z,36.60
2023-03-16T04:17:40.911Z,36.80
2023-03-16T04:20:14.553Z,36.70
2023-03-16T04:22:43.445Z,36.90
2023-03-16T04:25:11.902Z,37.40
2023-03-16T04:27:41.242Z,37.10
2023-03-16T04:30:12.680Z,37.00
2023-03-16T04:32:41.631Z,36.80
2023-03-16T04:35:11.336Z,36.70
2023-03-16T04:37:39.333Z,37.00
2023-03-16T04:40:11.825Z,36.30
2023-03-16T04:42:41.144Z,36.80
2023-03-16T04:45:10.459Z,36.90
2023-03-16T04:47:38.699Z,36.70
2023-03-16T04:50:08.635Z,36.60
2023-03-16T04:52:36.846Z,37.00
2023-03-16T04:55:05.949Z,37.00
2023-03-16T04:57:34.941Z,36.50
2023-03-16T05:00:11.618Z,36.70
2023-03-16T05:02:39.976Z,36.70
2023-03-16T05:05:09.013Z,37.20
2023-03-16T05:07:37.071Z,36.80
2023-03-16T05:10:05.661Z,36.80
2023-03-16T05:12:33.654Z,37.40
2023-03-16T05:15:01.679Z,37.50
2023-03-16T05:17:31.045Z,37.50
2023-03-16T05:19:59.316Z,36.70
2023-03-16T05:22:27.418Z,37.20
2023-03-16T05:24:55.396Z,37.10
2023-03-16T05:27:23.436Z,35.00
2023-03-16T05:29:51.461Z,33.90
2023-03-16T05:32:19.456Z,32.70
2023-03-16T05:34:48.819Z,31.50
2023-03-16T05:37:16.868Z,31.20
2023-03-16T05:39:44.857Z,30.90
2023-03-16T05:42:12.840Z,30.50
2023-03-16T05:44:40.959Z,30.10
2023-03-16T05:47:09.256Z,30.10
2023-03-16T05:49:37.266Z,29.60
2023-03-16T05:52:06.869Z,29.20
2023-03-16T05:54:34.986Z,29.00
2023-03-16T05:57:03.028Z,29.30
2023-03-16T05:59:30.971Z,29.40
2023-03-16T06:01:58.967Z,29.50
2023-03-16T06:04:26.970Z,29.60
2023-03-16T06:06:54.991Z,29.90
2023-03-16T06:09:24.360Z,29.80
2023-03-16T06:11:52.298Z,29.80
2023-03-16T06:14:20.419Z,29.90
2023-03-16T06:16:48.395Z,30.10
2023-03-16T06:19:16.411Z,30.00
2023-03-16T06:21:44.493Z,30.00
2023-03-16T06:24:12.493Z,30.30
2023-03-16T06:26:42.089Z,29.90
2023-03-16T06:29:10.137Z,30.00
2023-03-16T06:31:38.355Z,30.00
2023-03-16T06:34:06.388Z,30.40
2023-03-16T06:36:34.410Z,30.50
2023-03-16T06:39:02.445Z,30.30
2023-03-16T06:41:30.429Z,30.30
2023-03-16T06:43:59.864Z,30.40
2023-03-16T06:46:29.134Z,30.50
2023-03-16T06:48:57.119Z,30.60
2023-03-16T06:51:25.197Z,30.50
2023-03-16T06:53:53.218Z,30.50
2023-03-16T06:56:21.581Z,30.20
2023-03-16T06:58:49.587Z,30.50
2023-03-16T07:01:18.970Z,30.40
2023-03-16T07:03:47.076Z,30.70
2023-03-16T07:06:15.058Z,30.40
2023-03-16T07:08:43.366Z,30.60
2023-03-16T07:11:11.567Z,30.60
2023-03-16T07:13:39.782Z,30.60
2023-03-16T07:16:08.732Z,30.50
2023-03-16T07:18:39.900Z,30.20
2023-03-16T07:21:08.057Z,30.40
2023-03-16T07:23:36.132Z,30.50
2023-03-16T07:26:04.528Z,30.80
2023-03-16T07:28:32.541Z,30.50
2023-03-16T07:31:04.248Z,30.40
2023-03-16T07:33:33.133Z,30.20
2023-03-16T07:36:04.599Z,30.50
2023-03-16T07:38:33.473Z,30.00
2023-03-16T07:41:01.929Z,30.40
2023-03-16T07:43:30.241Z,30.00
2023-03-16T07:45:58.209Z,30.20
2023-03-16T07:48:26.604Z,30.20
2023-03-16T07:50:55.137Z,30.10
2023-03-16T07:53:24.806Z,30.10
2023-03-16T07:55:52.943Z,30.20
2023-03-16T07:58:21.580Z,29.90
2023-03-16T08:00:49.536Z,29.70
2023-03-16T08:03:17.645Z,30.00
2023-03-16T08:05:45.653Z,30.00
2023-03-16T08:08:15.869Z,29.70
2023-03-16T08:10:45.470Z,29.70
2023-03-16T08:13:14.007Z,29.80
2023-03-16T08:15:42.303Z,29.70
2023-03-16T08:18:10.317Z,29.60
2023-03-16T08:20:38.332Z,29.50
2023-03-16T08:23:06.872Z,29.70
2023-03-16T08:25:35.106Z,29.70
2023-03-16T08:28:04.715Z,29.20
2023-03-16T08:30:32.963Z,29.30
2023-03-16T08:33:03.102Z,29.60
2023-03-16T08:35:31.359Z,29.50
2023-03-16T08:37:59.801Z,29.30
2023-03-16T08:40:29.632Z,28.90
2023-03-16T08:42:58.132Z,29.00
2023-03-16T08:45:27.938Z,28.90
2023-03-16T08:47:56.013Z,29.00
2023-03-16T08:50:24.018Z,28.80
2023-03-16T08:52:52.078Z,28.90
2023-03-16T08:55:20.339Z,29.00
2023-03-16T08:57:48.736Z,28.80
2023-03-16T09:00:17.886Z,29.60
2023-03-16T09:02:47.855Z,28.90
2023-03-16T09:05:18.157Z,28.80
2023-03-16T09:07:48.887Z,28.70
2023-03-16T09:10:17.336Z,29.00
2023-03-16T09:12:45.793Z,28.60
2023-03-16T09:15:14.763Z,29.30
2023-03-16T09:17:44.912Z,27.50
2023-03-16T09:20:22.849Z,28.20
2023-03-16T09:22:55.591Z,27.80
2023-03-16T09:25:24.087Z,27.80
2023-03-16T09:27:52.699Z,27.70
2023-03-16T09:30:20.767Z,27.20
2023-03-16T09:32:49.140Z,27.40
2023-03-16T09:35:19.560Z,27.10
2023-03-16T09:38:04.789Z,27.00
2023-03-16T09:40:34.109Z,27.10
2023-03-16T09:43:24.790Z,27.10
2023-03-16T09:46:02.688Z,26.50
2023-03-16T09:48:35.498Z,26.60
2023-03-16T09:51:07.636Z,26.10
2023-03-16T09:53:39.161Z,26.40
2023-03-16T09:56:12.353Z,26.60
2023-03-16T09:58:40.670Z,26.60
2023-03-16T10:01:19.270Z,26.20
2023-03-16T10:04:06.649Z,25.60
2023-03-16T10:06:45.775Z,26.30
2023-03-16T10:09:28.277Z,26.10
2023-03-16T10:11:58.911Z,26.00
2023-03-16T10:14:34.662Z,25.70
2023-03-16T10:17:06.842Z,26.20
2023-03-16T10:19:41.304Z,26.30
2023-03-16T10:22:21.367Z,26.30
2023-03-16T10:25:02.492Z,26.10
2023-03-16T10:27:33.454Z,26.30
2023-03-16T10:30:07.164Z,26.00
2023-03-16T10:32:36.592Z,26.00
2023-03-16T10:35:15.879Z,25.90
2023-03-16T10:37:46.516Z,25.40
2023-03-16T10:40:15.137Z,25.20
2023-03-16T10:42:43.810Z,25.10
2023-03-16T10:45:27.573Z,24.60
2023-03-16T10:48:08.287Z,25.20
2023-03-16T10:50:37.045Z,24.80
2023-03-16T10:53:16.624Z,24.90
2023-03-16T10:55:45.757Z,25.00
2023-03-16T10:58:26.113Z,24.90
2023-03-16T11:00:55.100Z,24.30
2023-03-16T11:03:28.749Z,24.60
2023-03-16T11:06:02.453Z,25.30
2023-03-16T11:08:35.867Z,25.00
2023-03-16T11:11:13.151Z,25.10
2023-03-16T11:13:47.442Z,24.10
2023-03-16T11:16:25.636Z,24.10
2023-03-16T11:18:57.968Z,24.50
2023-03-16T11:21:39.735Z,23.90
2023-03-16T11:24:18.203Z,23.90
2023-03-16T11:26:49.957Z,23.80
2023-03-16T11:29:24.754Z,23.50
2023-03-16T11:31:56.130Z,23.00
2023-03-16T11:34:30.497Z,23.00
2023-03-16T11:37:06.465Z,22.70
2023-03-16T11:39:45.874Z,22.30
2023-03-16T11:42:31.111Z,22.30
2023-03-16T11:45:11.649Z,22.30
2023-03-16T11:48:26.259Z,22.70
2023-03-16T11:51:07.529Z,22.30
2023-03-16T11:53:53.851Z,22.30
2023-03-16T11:56:34.314Z,22.50
2023-03-16T11:59:19.549Z,22.30
2023-03-16T12:02:05.918Z,22.20
2023-03-16T12:05:10.194Z,22.10
2023-03-16T12:07:52.674Z,21.70
2023-03-16T12:10:27.299Z,22.10
2023-03-16T12:13:13.348Z,21.90
2023-03-16T12:15:47.729Z,21.80
2023-03-16T12:18:21.271Z,22.00
2023-03-16T12:20:56.170Z,22.40
2023-03-16T12:23:32.356Z,21.60
2023-03-16T12:26:03.504Z,21.80
2023-03-16T12:28:34.280Z,21.60
2023-03-16T12:31:13.103Z,21.70
2023-03-16T12:33:58.767Z,22.40
2023-03-16T12:36:52.523Z,22.10
2023-03-16T12:39:34.133Z,22.50
2023-03-16T12:42:21.756Z,22.40
2023-03-16T12:44:58.518Z,22.50
2023-03-16T12:47:33.676Z,22.50
2023-03-16T12:50:07.402Z,22.50
2023-03-16T12:52:43.523Z,22.50
2023-03-16T12:55:17.566Z,22.40
2023-03-16T12:57:49.123Z,22.40
2023-03-16T13:00:21.386Z,22.60
2023-03-16T13:02:57.200Z,22.40
2023-03-16T13:05:32.824Z,22.70
2023-03-16T13:08:11.510Z,22.70
2023-03-16T13:10:40.234Z,22.40
2023-03-16T13:13:14.953Z,22.30
2023-03-16T13:15:47.287Z,22.50
2023-03-16T13:18:24.809Z,22.30
2023-03-16T13:20:58.940Z,22.50
2023-03-16T13:23:30.013Z,22.50
2023-03-16T13:26:16.306Z,22.50
2023-03-16T13:28:51.243Z,22.40
2023-03-16T13:31:28.595Z,22.30
2023-03-16T13:34:00.014Z,22.30
2023-03-16T13:36:30.102Z,22.20
2023-03-16T13:39:05.395Z,22.10
2023-03-16T13:41:34.231Z,21.70
2023-03-16T13:44:02.662Z,21.50
2023-03-16T13:46:31.934Z,21.40
2023-03-16T13:49:01.101Z,21.20
2023-03-16T13:51:34.132Z,21.30
2023-03-16T13:54:09.393Z,21.10
2023-03-16T13:56:39.881Z,21.10
2023-03-16T13:59:10.515Z,20.80
2023-03-16T14:01:40.448Z,21.10
2023-03-16T14:04:18.652Z,20.90
2023-03-16T14:06:56.057Z,21.00
2023-03-16T14:09:30.519Z,20.90
2023-03-16T14:11:58.604Z,20.70
2023-03-16T14:14:30.844Z,20.80
2023-03-16T14:17:11.806Z,20.70
2023-03-16T14:19:44.368Z,20.90
2023-03-16T14:22:16.289Z,20.80
2023-03-16T14:24:47.815Z,20.90
2023-03-16T14:27:23.769Z,20.70
2023-03-16T14:30:18.074Z,20.90
2023-03-16T14:32:59.772Z,20.70
2023-03-16T14:35:32.198Z,21.00
2023-03-16T14:38:23.209Z,20.80
2023-03-16T14:40:55.989Z,21.00
2023-03-16T14:43:32.630Z,20.60
2023-03-16T14:46:01.936Z,20.70
2023-03-16T14:48:31.328Z,20.90
2023-03-16T14:51:02.883Z,21.00
2023-03-16T14:53:31.652Z,20.20
2023-03-16T14:56:00.780Z,20.00
2023-03-16T14:58:28.785Z,20.50
2023-03-16T15:00:57.937Z,20.50
2023-03-16T15:03:35.107Z,20.60
2023-03-16T15:06:03.921Z,20.30
2023-03-16T15:08:36.963Z,20.50
2023-03-16T15:11:07.119Z,20.90
2023-03-16T15:13:52.958Z,20.50
2023-03-16T15:16:23.022Z,20.90
2023-03-16T15:18:52.825Z,20.60
2023-03-16T15:21:24.157Z,20.60
2023-03-16T15:23:52.323Z,20.60
2023-03-16T15:26:27.114Z,20.60
2023-03-16T15:28:55.687Z,20.80
2023-03-16T15:31:24.199Z,20.80
2023-03-16T15:33:53.680Z,20.90
2023-03-16T15:36:24.218Z,21.00
2023-03-16T15:38:54.807Z,21.10
2023-03-16T15:41:24.819Z,19.70
2023-03-16T15:43:52.903Z,15.50
2023-03-16T15:46:21.131Z,14.70
2023-03-16T15:48:49.222Z,14.70
2023-03-16T15:51:24.625Z,14.10
2023-03-16T15:53:56.541Z,13.10
2023-03-16T15:56:30.139Z,13.50
2023-03-16T15:59:00.915Z,14.10
2023-03-16T16:01:34.751Z,13.40
2023-03-16T16:04:03.406Z,13.10
2023-03-16T16:06:32.857Z,13.50
2023-03-16T16:09:00.960Z,13.60
2023-03-16T16:11:29.743Z,13.30
2023-03-16T16:13:59.323Z,12.40
2023-03-16T16:16:29.911Z,12.60
2023-03-16T16:18:58.002Z,12.40
2023-03-16T16:21:29.002Z,12.60
2023-03-16T16:23:58.678Z,13.40
2023-03-16T16:26:46.908Z,13.20
2023-03-16T16:29:17.634Z,13.30
2023-03-16T16:31:46.074Z,12.90
2023-03-16T16:34:16.991Z,13.40
2023-03-16T16:36:45.505Z,12.70
2023-03-16T16:39:15.000Z,13.50
2023-03-16T16:41:43.719Z,13.20
2023-03-16T16:44:18.410Z,13.50
2023-03-16T16:46:48.088Z,13.60
2023-03-16T16:49:20.098Z,14.10
2023-03-16T16:51:48.297Z,13.50
2023-03-16T16:54:19.580Z,14.20
2023-03-16T16:56:51.798Z,14.30
2023-03-16T16:59:22.775Z,14.00
2023-03-16T17:01:53.850Z,13.70
2023-03-16T17:04:24.772Z,14.10
2023-03-16T17:06:55.577Z,14.10
2023-03-16T17:09:27.117Z,14.70
2023-03-16T17:11:58.528Z,14.60
2023-03-16T17:14:28.299Z,14.50
2023-03-16T17:16:56.981Z,14.50
2023-03-16T17:19:27.897Z,14.90
2023-03-16T17:21:58.200Z,14.80
2023-03-16T17:24:28.680Z,14.80
2023-03-16T17:27:00.248Z,14.10
2023-03-16T17:29:31.258Z,14.80
2023-03-16T17:32:00.696Z,14.50
2023-03-16T17:34:31.833Z,14.70
2023-03-16T17:37:00.019Z,15.00
2023-03-16T17:39:31.994Z,15.20
2023-03-16T17:42:02.050Z,15.00
2023-03-16T17:44:33.818Z,15.20
2023-03-16T17:47:01.961Z,15.80
2023-03-16T17:49:31.584Z,15.80
2023-03-16T17:51:59.574Z,15.90
2023-03-16T17:54:29.009Z,16.50
2023-03-16T17:56:57.078Z,16.60
2023-03-16T17:59:25.056Z,17.00
2023-03-16T18:01:53.123Z,16.30
2023-03-16T18:04:23.784Z,17.00
2023-03-16T18:06:52.226Z,17.40
2023-03-16T18:09:21.514Z,17.50
2023-03-16T18:11:52.301Z,17.50
2023-03-16T18:14:34.730Z,17.90
2023-03-16T18:17:03.540Z,18.20
2023-03-16T18:19:33.325Z,18.30
2023-03-16T18:22:01.343Z,18.30
2023-03-16T18:24:29.758Z,18.40
2023-03-16T18:26:59.070Z,18.60
2023-03-16T18:29:27.083Z,18.60
2023-03-16T18:31:59.184Z,18.60
2023-03-16T18:34:35.613Z,19.00
2023-03-16T18:37:06.045Z,19.00
2023-03-16T18:39:34.500Z,19.10
2023-03-16T18:42:03.909Z,19.20
2023-03-16T18:44:33.193Z,19.30
2023-03-16T18:47:04.641Z,19.90
2023-03-16T18:49:35.969Z,19.90
2023-03-16T18:52:05.134Z,20.10
2023-03-16T18:54:35.472Z,20.10
2023-03-16T18:57:11.752Z,20.00
2023-03-16T18:59:39.666Z,20.10
2023-03-16T19:02:28.384Z,20.10
2023-03-16T19:04:58.506Z,20.40
2023-03-16T19:07:34.231Z,20.60
2023-03-16T19:10:08.454Z,20.90
2023-03-16T19:12:37.806Z,20.70
2023-03-16T19:15:19.651Z,21.00
2023-03-16T19:17:48.523Z,21.10
2023-03-16T19:20:19.350Z,21.50
2023-03-16T19:22:49.147Z,21.50
2023-03-16T19:25:20.904Z,21.30
2023-03-16T19:27:50.543Z,21.40
2023-03-16T19:30:26.298Z,21.50
2023-03-16T19:32:54.612Z,21.40
2023-03-16T19:35:33.763Z,21.20
2023-03-16T19:38:09.282Z,21.60
2023-03-16T19:40:37.292Z,21.50
2023-03-16T19:43:07.039Z,21.40
2023-03-16T19:45:35.418Z,21.70
2023-03-16T19:48:03.723Z,21.60
2023-03-16T19:50:32.027Z,21.40
2023-03-16T19:53:00.793Z,21.40
2023-03-16T19:55:32.545Z,21.70
2023-03-16T19:58:05.908Z,21.80
2023-03-16T20:00:35.928Z,21.70
2023-03-16T20:03:04.089Z,21.70
2023-03-16T20:05:33.620Z,22.00
2023-03-16T20:08:03.621Z,21.90
2023-03-16T20:10:33.204Z,21.70
2023-03-16T20:13:02.481Z,21.90
2023-03-16T20:15:35.337Z,21.90
2023-03-16T20:18:03.513Z,21.90
2023-03-16T20:20:34.296Z,21.30
2023-03-16T20:23:02.798Z,21.90
2023-03-16T20:25:35.006Z,22.40
2023-03-16T20:28:05.015Z,22.10
2023-03-16T20:30:34.676Z,21.90
2023-03-16T20:33:03.586Z,22.20
2023-03-16T20:35:32.426Z,22.20
2023-03-16T20:38:00.539Z,21.40
2023-03-16T20:40:28.604Z,21.30
2023-03-16T20:42:56.556Z,22.40
2023-03-16T20:45:28.305Z,22.40
2023-03-16T20:47:58.294Z,21.50
2023-03-16T20:50:29.654Z,22.40
2023-03-16T20:52:57.845Z,22.70
2023-03-16T20:55:29.701Z,22.30
2023-03-16T20:57:58.456Z,22.50
2023-03-16T21:00:33.226Z,22.30
2023-03-16T21:03:05.293Z,22.50
2023-03-16T21:05:33.749Z,22.40
2023-03-16T21:08:01.728Z,22.50
2023-03-16T21:10:30.667Z,22.50
2023-03-16T21:12:59.077Z,22.30
2023-03-16T21:15:31.110Z,22.50
2023-03-16T21:18:03.545Z,22.60
2023-03-16T21:20:33.798Z,22.70
2023-03-16T21:23:03.189Z,22.40
2023-03-16T21:25:35.159Z,22.80
2023-03-16T21:28:06.008Z,22.90
2023-03-16T21:30:38.266Z,22.70
2023-03-16T21:33:20.180Z,22.70
2023-03-16T21:35:48.923Z,22.80
2023-03-16T21:38:20.796Z,22.70
2023-03-16T21:40:49.267Z,22.90
2023-03-16T21:43:17.670Z,21.90
2023-03-16T21:45:47.353Z,21.90
2023-03-16T21:48:21.476Z,22.80
2023-03-16T21:50:50.968Z,22.80
2023-03-16T21:53:23.416Z,22.60
2023-03-16T21:55:53.302Z,23.10
2023-03-16T21:58:22.095Z,23.20
2023-03-16T22:00:52.591Z,22.70
2023-03-16T22:03:37.797Z,22.70
2023-03-16T22:06:13.603Z,22.70
2023-03-16T22:08:41.684Z,22.60
2023-03-16T22:11:17.831Z,22.10
2023-03-16T22:13:46.343Z,23.00
2023-03-16T22:16:17.209Z,22.50
2023-03-16T22:18:48.474Z,22.70
2023-03-16T22:21:29.807Z,23.30
2023-03-16T22:23:59.159Z,23.30
2023-03-16T22:26:28.829Z,22.70
2023-03-16T22:28:58.130Z,23.30
2023-03-16T22:31:31.875Z,23.40
2023-03-16T22:34:02.050Z,23.70
2023-03-16T22:36:33.018Z,24.40
2023-03-16T22:39:05.279Z,23.80
2023-03-16T22:41:33.425Z,23.80
2023-03-16T22:44:02.807Z,23.50
2023-03-16T22:46:31.582Z,23.00
2023-03-16T22:49:01.114Z,23.90
2023-03-16T22:51:33.289Z,23.90
2023-03-16T22:54:04.747Z,23.90
2023-03-16T22:56:33.791Z,24.00
2023-03-16T22:59:05.766Z,24.00
2023-03-16T23:01:37.438Z,24.00
2023-03-16T23:04:15.866Z,24.00
2023-03-16T23:06:44.482Z,24.00
2023-03-16T23:09:15.269Z,24.10
2023-03-16T23:11:45.792Z,23.70
2023-03-16T23:14:15.858Z,24.10
2023-03-16T23:16:44.830Z,24.00
2023-03-16T23:19:25.190Z,24.20
2023-03-16T23:21:55.600Z,24.00
2023-03-16T23:24:24.213Z,24.30
2023-03-16T23:26:53.363Z,24.60
2023-03-16T23:29:22.885Z,24.90
2023-03-16T23:31:51.429Z,25.10
2023-03-16T23:34:23.258Z,25.20
2023-03-16T23:36:52.472Z,25.50
2023-03-16T23:39:20.549Z,25.60
2023-03-16T23:41:50.999Z,25.70
2023-03-16T23:44:22.155Z,25.60
2023-03-16T23:46:50.738Z,25.80
2023-03-16T23:49:23.679Z,25.60
2023-03-16T23:51:52.944Z,25.80
2023-03-16T23:54:24.008Z,26.00
2023-03-16T23:56:52.171Z,25.70
2023-03-16T23:59:20.877Z,26.20
